Time;durP1;ratioP1;P1;durP2;ratioP2;P2;SDS_P1;SDS_P2;PMS_P1;PMS_P2;Temp;Humidity;BMP_temperature;BMP_pressure;BME280_temperature;BME280_humidity;BME280_pressure;Samples;Min_cycle;Max_cycle;Signal;HPM_P1;HPM_P2
2021/11/12 00:15:16;;;;;;;170.15;18.45;;;;;;;0.35;100.00;99027.16;10349322;28;20053;-61
2021/11/12 00:20:19;;;;;;;178.15;21.23;;;;;;;0.29;100.00;99023.03;10400944;28;20083;-61
2021/11/12 00:25:22;;;;;;;678.65;25.25;;;;;;;0.28;100.00;99024.84;10400163;28;20050;-61
2021/11/12 00:30:35;;;;;;;156.95;19.38;;;;;;;0.27;100.00;99022.25;10391639;28;20119;-60
2021/11/12 00:35:43;;;;;;;198.85;20.17;;;;;;;0.26;100.00;99018.75;10372946;28;20068;-59
2021/11/12 00:40:54;;;;;;;336.08;21.73;;;;;;;0.20;100.00;99024.38;10397810;28;20065;-61
2021/11/12 00:46:10;;;;;;;;;;;;;;;0.14;100.00;99027.34;10375399;28;20148;-60
2021/11/12 00:51:23;;;;;;;183.45;21.20;;;;;;;0.09;100.00;99024.94;10387773;28;19921;-61
2021/11/12 00:56:28;;;;;;;379.05;23.08;;;;;;;0.06;100.00;99027.75;10394610;28;20049;-60
2021/11/12 01:01:34;;;;;;;319.08;21.02;;;;;;;0.03;100.00;99021.75;10396372;28;20286;-59
2021/11/12 01:06:39;;;;;;;226.18;19.20;;;;;;;0.01;100.00;99013.88;10397947;28;20037;-60
2021/11/12 01:11:44;;;;;;;585.65;25.30;;;;;;;-0.10;100.00;99014.44;10397069;28;20567;-60
2021/11/12 01:16:48;;;;;;;621.25;23.83;;;;;;;-0.15;100.00;99008.53;10391442;28;20065;-59
2021/11/12 01:21:52;;;;;;;674.40;24.30;;;;;;;-0.19;100.00;99005.19;10394302;28;20095;-61
2021/11/12 01:26:55;;;;;;;231.27;19.05;;;;;;;-0.19;100.00;98996.41;10378947;28;20045;-61
2021/11/12 01:37:19;;;;;;;266.42;21.67;;;;;;;-0.19;100.00;98991.09;10395068;28;20064;-60
2021/11/12 01:42:26;;;;;;;385.40;23.00;;;;;;;-0.20;100.00;98984.09;10388892;28;20491;-60
2021/11/12 01:47:37;;;;;;;129.13;19.27;;;;;;;-0.21;100.00;98985.84;10399348;28;20490;-59
2021/11/12 01:52:42;;;;;;;330.48;20.50;;;;;;;-0.20;100.00;98976.13;10404638;28;20132;-60
2021/11/12 01:57:53;;;;;;;503.60;19.98;;;;;;;-0.28;100.00;98971.25;10393700;28;20069;-60
2021/11/12 02:02:58;;;;;;;387.10;20.70;;;;;;;-0.32;100.00;98973.19;10404615;28;20053;-60
2021/11/12 02:08:02;;;;;;;668.20;25.10;;;;;;;-0.42;100.00;98968.44;10397772;28;20047;-60
2021/11/12 02:13:08;;;;;;;503.73;24.25;;;;;;;-0.50;100.00;98980.28;10394368;28;20129;-59
2021/11/12 02:18:15;;;;;;;769.38;28.00;;;;;;;-0.53;100.00;98961.91;10396114;28;20520;-59
2021/11/12 02:23:19;;;;;;;411.90;22.35;;;;;;;-0.55;100.00;98960.28;10392321;28;20124;-60
2021/11/12 02:28:25;;;;;;;724.55;26.10;;;;;;;-0.67;100.00;98959.97;10390756;28;20120;-59
2021/11/12 02:33:28;;;;;;;439.08;24.88;;;;;;;-0.63;100.00;98963.31;10399581;28;20049;-59
2021/11/12 02:38:34;;;;;;;766.55;27.27;;;;;;;-0.73;100.00;98965.53;10394491;28;20121;-59
2021/11/12 02:43:40;;;;;;;381.83;21.48;;;;;;;-0.72;100.00;98967.25;10391806;28;20041;-60
2021/11/12 02:48:43;;;;;;;427.30;21.65;;;;;;;-0.79;100.00;98955.28;10395336;28;20057;-59
2021/11/12 02:53:49;;;;;;;580.83;22.10;;;;;;;-0.78;100.00;98964.94;10401732;28;20051;-59
2021/11/12 02:58:53;;;;;;;554.55;22.65;;;;;;;-0.81;100.00;98965.06;10395863;28;20140;-57
2021/11/12 03:03:57;;;;;;;699.92;25.02;;;;;;;-0.87;100.00;98968.00;10402487;28;20041;-58
2021/11/12 03:09:04;;;;;;;302.33;22.52;;;;;;;-0.87;100.00;98974.16;10398468;28;20121;-58
2021/11/12 03:14:08;;;;;;;777.70;28.55;;;;;;;-0.91;100.00;98966.47;10399997;28;20120;-55
2021/11/12 03:19:13;;;;;;;915.95;33.60;;;;;;;-0.93;100.00;98963.88;10396126;28;20130;-56
2021/11/12 03:24:21;;;;;;;720.65;31.50;;;;;;;-0.94;100.00;98972.75;10377914;28;20049;-58
2021/11/12 04:01:53;;;;;;;248.88;24.45;;;;;;;-0.95;100.00;98963.13;10361416;28;20095;-58
2021/11/12 04:07:04;;;;;;;272.63;25.55;;;;;;;-0.89;100.00;98956.66;10394933;28;20547;-58
2021/11/12 04:17:51;;;;;;;435.45;25.50;;;;;;;-0.89;100.00;98965.44;10390757;28;20042;-59
2021/11/12 04:50:01;;;;;;;237.10;21.55;;;;;;;-0.76;100.00;98938.38;10391746;28;20579;-58
2021/11/12 05:11:31;;;;;;;489.95;28.25;;;;;;;-0.82;100.00;98942.19;10371468;28;20052;-60
2021/11/12 05:43:46;;;;;;;627.40;25.08;;;;;;;-0.81;100.00;98893.66;10443217;22;20396;-58
2021/11/12 05:55:07;;;;;;;530.13;24.65;;;;;;;-0.77;100.00;98913.72;10420449;28;20412;-53
2021/11/12 06:00:14;;;;;;;677.78;25.23;;;;;;;-0.82;100.00;98902.50;10435019;28;20029;-57
2021/11/12 06:05:19;;;;;;;770.92;27.15;;;;;;;-0.84;100.00;98894.66;10428688;28;20128;-54
2021/11/12 06:10:22;;;;;;;403.33;23.58;;;;;;;-0.84;100.00;98888.50;10406536;28;20045;-53
2021/11/12 06:15:26;;;;;;;640.20;27.38;;;;;;;-0.85;100.00;98886.78;10431757;28;20091;-52
2021/11/12 06:20:30;;;;;;;537.53;26.15;;;;;;;-0.82;100.00;98878.69;10414589;28;20532;-52
2021/11/12 06:25:34;;;;;;;207.18;20.73;;;;;;;-0.81;100.00;98880.41;10419231;28;20043;-52
2021/11/12 06:30:37;;;;;;;386.55;23.63;;;;;;;-0.77;100.00;98876.69;10435056;28;20385;-56
2021/11/12 06:35:42;;;;;;;442.85;23.80;;;;;;;-0.78;100.00;98867.88;10435099;28;20052;-56
2021/11/12 06:40:45;;;;;;;534.00;27.08;;;;;;;-0.76;100.00;98865.16;10433869;28;20509;-57
2021/11/12 06:51:10;;;;;;;487.77;26.63;;;;;;;-0.76;100.00;98869.59;10418832;28;20745;-57
2021/11/12 06:56:13;;;;;;;442.02;25.40;;;;;;;-0.76;100.00;98856.38;10396116;28;20045;-55
2021/11/12 07:01:17;;;;;;;187.88;21.83;;;;;;;-0.71;100.00;98854.34;10389973;28;20049;-57
2021/11/12 07:06:22;;;;;;;319.20;23.02;;;;;;;-0.68;100.00;98862.09;10373210;28;20159;-54
2021/11/12 07:11:25;;;;;;;435.08;24.52;;;;;;;-0.67;100.00;98862.06;10392250;28;20045;-59
2021/11/12 07:16:27;;;;;;;620.10;24.70;;;;;;;-0.65;100.00;98868.09;10387812;28;20779;-53
2021/11/12 07:21:32;;;;;;;199.38;22.95;;;;;;;-0.58;100.00;98866.00;10385648;28;20098;-56
2021/11/12 07:26:36;;;;;;;212.77;22.20;;;;;;;-0.51;100.00;98853.28;10385820;28;20065;-60
2021/11/12 07:31:40;;;;;;;289.83;22.75;;;;;;;-0.50;100.00;98844.41;10389627;28;20050;-57
2021/11/12 07:36:47;;;;;;;203.18;22.48;;;;;;;-0.47;100.00;98853.03;10384516;28;20049;-54
2021/11/12 07:42:07;;;;;;;254.85;21.50;;;;;;;-0.42;100.00;98867.84;10384644;28;20049;-53
2021/11/12 07:47:13;;;;;;;108.13;21.02;;;;;;;-0.43;100.00;98867.00;10380221;28;20040;-53
2021/11/12 07:52:20;;;;;;;392.23;23.65;;;;;;;-0.39;100.00;98857.94;10377673;28;20049;-57
2021/11/12 07:57:23;;;;;;;554.70;24.85;;;;;;;-0.42;100.00;98855.47;10396295;28;20044;-57
2021/11/12 08:02:27;;;;;;;164.55;21.60;;;;;;;-0.35;100.00;98838.31;10388662;28;20049;-57
2021/11/12 08:07:33;;;;;;;217.63;20.25;;;;;;;-0.32;100.00;98830.22;10391286;28;20477;-56
2021/11/12 08:12:38;;;;;;;185.32;21.08;;;;;;;-0.26;100.00;98834.31;10393387;28;20071;-57
2021/11/12 08:17:47;;;;;;;106.03;19.90;;;;;;;-0.20;100.00;98825.19;10377831;28;20048;-55
2021/11/12 08:22:57;;;;;;;401.10;23.02;;;;;;;-0.17;100.00;98831.19;10395450;28;20037;-53
2021/11/12 08:28:17;;;;;;;279.48;18.30;;;;;;;-0.19;100.00;98829.56;10391714;28;20417;-54
2021/11/12 08:33:32;;;;;;;875.63;26.67;;;;;;;-0.25;100.00;98843.97;10399382;28;20141;-56
2021/11/12 08:38:44;;;;;;;447.52;24.13;;;;;;;-0.27;100.00;98835.25;10398934;28;20083;-53
2021/11/12 08:43:53;;;;;;;722.13;28.85;;;;;;;-0.18;100.00;98833.91;10420644;28;20068;-57
2021/11/12 08:49:00;;;;;;;443.92;24.40;;;;;;;-0.06;100.00;98821.78;10419509;28;20063;-58
2021/11/12 08:54:06;;;;;;;217.88;26.00;;;;;;;0.04;100.00;98819.50;10420254;28;20049;-60
2021/11/12 08:59:10;;;;;;;244.02;26.42;;;;;;;0.13;100.00;98808.38;10414042;28;20041;-58
2021/11/12 09:04:14;;;;;;;366.02;27.92;;;;;;;0.24;100.00;98807.75;10434392;28;20045;-60
2021/11/12 09:09:18;;;;;;;718.15;30.70;;;;;;;0.25;100.00;98814.78;10437223;28;20131;-59
2021/11/12 09:14:24;;;;;;;674.33;31.05;;;;;;;0.27;100.00;98800.50;10437977;28;20520;-60
2021/11/12 09:19:27;;;;;;;503.58;28.80;;;;;;;0.35;100.00;98796.56;10432996;28;20048;-60
2021/11/12 09:24:31;;;;;;;457.33;26.63;;;;;;;0.46;100.00;98786.19;10437028;28;20051;-60
2021/11/12 09:29:35;;;;;;;309.10;25.83;;;;;;;0.55;100.00;98790.13;10433446;28;20039;-60
2021/11/12 09:34:41;;;;;;;748.78;32.47;;;;;;;0.54;100.00;98791.91;10429669;28;20559;-57
2021/11/12 09:39:53;;;;;;;473.20;29.40;;;;;;;0.58;100.00;98780.19;10425431;28;20049;-57
2021/11/12 09:44:57;;;;;;;450.65;30.13;;;;;;;0.66;100.00;98768.28;10388286;28;20046;-56
2021/11/12 09:50:02;;;;;;;415.88;28.77;;;;;;;0.74;100.00;98758.09;10379333;28;20103;-57
2021/11/12 09:55:08;;;;;;;167.52;28.80;;;;;;;0.89;100.00;98746.53;10377995;28;20072;-60
2021/11/12 10:00:15;;;;;;;427.88;29.00;;;;;;;0.99;100.00;98743.34;10373434;28;20050;-58
2021/11/12 10:05:32;;;;;;;314.95;33.47;;;;;;;1.16;100.00;98724.59;10396770;28;20049;-61
2021/11/12 10:10:46;;;;;;;149.98;31.77;;;;;;;1.34;100.00;98713.81;10390596;28;20041;-60
2021/11/12 10:15:54;;;;;;;245.27;32.47;;;;;;;1.49;100.00;98715.47;10393607;28;20052;-59
2021/11/12 10:20:59;;;;;;;161.35;30.58;;;;;;;1.56;100.00;98699.16;10401549;28;20065;-56
2021/11/12 10:26:05;;;;;;;534.55;34.40;;;;;;;1.59;100.00;98685.72;10399921;28;20504;-58
2021/11/12 10:31:18;;;;;;;286.23;34.10;;;;;;;1.74;100.00;98674.06;10401761;28;20142;-56
2021/11/12 10:36:21;;;;;;;555.63;36.30;;;;;;;1.81;100.00;98678.06;10382755;28;20490;-64
2021/11/12 10:41:28;;;;;;;632.08;34.92;;;;;;;1.84;100.00;98667.22;10394988;28;20063;-61
2021/11/12 10:46:40;;;;;;;431.50;33.63;;;;;;;1.95;100.00;98655.91;10395651;28;20049;-61
2021/11/12 10:51:51;;;;;;;327.38;32.55;;;;;;;2.10;100.00;98646.03;10398366;28;20057;-61
2021/11/12 10:56:56;;;;;;;306.70;34.70;;;;;;;2.26;100.00;98634.41;10401931;28;20042;-60
2021/11/12 11:01:59;;;;;;;164.88;31.92;;;;;;;2.35;100.00;98630.28;10398874;28;20037;-59
2021/11/12 11:07:21;;;;;;;180.88;34.20;;;;;;;2.40;100.00;98601.53;10382455;28;20075;-59
2021/11/12 11:12:41;;;;;;;352.50;45.05;;;;;;;2.46;100.00;98588.69;10394440;28;20046;-58
2021/11/12 11:17:45;;;;;;;102.85;45.78;;;;;;;2.67;100.00;98582.81;10403099;28;20046;-59
2021/11/12 11:22:56;;;;;;;118.25;46.13;;;;;;;2.77;100.00;98585.69;10379822;28;20061;-56
2021/11/12 11:28:02;;;;;;;78.57;39.67;;;;;;;2.97;100.00;98572.78;10395956;28;20045;-55
2021/11/12 11:33:05;;;;;;;67.63;40.35;;;;;;;3.16;100.00;98562.53;10400741;28;20133;-57
2021/11/12 11:38:08;;;;;;;69.68;40.28;;;;;;;3.34;100.00;98555.03;10398793;28;20030;-60
2021/11/12 11:43:13;;;;;;;100.97;40.33;;;;;;;3.47;100.00;98538.16;10465455;23;20067;-57
2021/11/12 11:48:18;;;;;;;58.05;35.40;;;;;;;3.70;100.00;98537.25;10470384;28;20045;-53
2021/11/12 11:53:32;;;;;;;41.88;29.38;;;;;;;3.74;100.00;98529.03;10460842;28;20397;-58
2021/11/12 11:58:41;;;;;;;39.40;27.10;;;;;;;3.84;100.00;98514.91;10479261;28;20071;-57
2021/11/12 12:03:46;;;;;;;41.25;28.33;;;;;;;4.00;100.00;98508.41;10477519;28;20136;-56
2021/11/12 12:08:51;;;;;;;41.60;28.27;;;;;;;4.12;100.00;98506.63;10480329;28;20043;-58
2021/11/12 12:14:20;;;;;;;44.35;28.23;;;;;;;4.41;100.00;98499.03;10476744;28;20136;-57
2021/11/12 12:19:45;;;;;;;34.92;24.73;;;;;;;4.65;100.00;98491.84;10474943;28;20086;-55
2021/11/12 12:31:02;;;;;;;35.83;26.13;;;;;;;5.03;100.00;98463.91;10479814;28;20381;-55
2021/11/12 13:21:00;;;;;;;33.88;24.85;;;;;;;6.05;100.00;98402.00;10475949;28;20119;-58
2021/11/12 13:26:06;;;;;;;34.60;24.58;;;;;;;6.19;100.00;98392.75;10474789;28;20072;-53
2021/11/12 13:31:12;;;;;;;31.00;23.15;;;;;;;6.51;100.00;98382.88;10477733;28;20040;-54
2021/11/12 13:36:24;;;;;;;27.75;21.83;;;;;;;6.74;100.00;98380.81;10459308;28;20044;-56
2021/11/12 13:41:29;;;;;;;24.80;20.55;;;;;;;6.99;100.00;98367.88;10483652;28;20492;-56
2021/11/12 13:46:46;;;;;;;27.75;19.92;;;;;;;7.29;100.00;98366.91;10485105;28;20045;-56
2021/11/12 13:51:51;;;;;;;26.13;19.55;;;;;;;7.42;100.00;98373.81;10486321;28;20036;-58
2021/11/12 13:56:54;;;;;;;26.02;20.30;;;;;;;7.34;100.00;98372.69;10483388;28;20126;-58
2021/11/12 14:02:02;;;;;;;29.05;21.02;;;;;;;7.07;100.00;98376.06;10468551;28;20056;-59
2021/11/12 14:07:17;;;;;;;27.33;20.92;;;;;;;6.89;100.00;98375.91;10486290;28;20051;-58
2021/11/12 14:12:20;;;;;;;28.88;20.67;;;;;;;6.90;100.00;98372.25;10482727;28;20045;-56
2021/11/12 14:17:27;;;;;;;29.33;21.98;;;;;;;6.69;100.00;98375.03;10485938;28;20044;-56
2021/11/12 14:22:45;;;;;;;31.02;22.02;;;;;;;6.67;100.00;98377.00;10483356;28;20123;-56
2021/11/12 14:28:03;;;;;;;30.45;22.40;;;;;;;6.68;100.00;98368.81;10482196;28;20048;-54
2021/11/12 14:33:20;;;;;;;28.73;21.23;;;;;;;6.61;100.00;98370.38;10482665;28;20123;-58
2021/11/12 14:38:31;;;;;;;29.90;22.50;;;;;;;6.55;100.00;98370.91;10483750;28;20049;-54
2021/11/12 14:43:46;;;;;;;29.52;22.73;;;;;;;6.52;100.00;98374.72;10481977;28;20064;-54
2021/11/12 14:48:58;;;;;;;30.60;22.60;;;;;;;6.54;100.00;98379.91;10484473;28;20068;-55
2021/11/12 14:54:08;;;;;;;36.58;22.08;;;;;;;6.46;100.00;98388.66;10483249;28;20390;-58
2021/11/12 14:59:15;;;;;;;326.15;26.52;;;;;;;6.05;100.00;98377.94;10481051;28;20047;-53
2021/11/12 15:04:19;;;;;;;119.10;25.50;;;;;;;5.52;100.00;98390.38;10483897;28;20048;-58
2021/11/12 15:09:27;;;;;;;161.25;25.98;;;;;;;5.40;100.00;98386.94;10486465;28;20051;-57
2021/11/12 15:14:34;;;;;;;98.18;24.55;;;;;;;5.18;100.00;98397.69;10481408;28;20047;-55
2021/11/12 15:19:42;;;;;;;57.88;24.25;;;;;;;4.98;100.00;98412.72;10466189;28;20308;-53
2021/11/12 15:24:59;;;;;;;269.27;26.20;;;;;;;4.69;100.00;98415.94;10482223;28;20056;-59
2021/11/12 15:30:05;;;;;;;268.15;28.73;;;;;;;4.51;100.00;98411.13;10479539;28;20061;-56
2021/11/12 15:35:11;;;;;;;264.60;30.92;;;;;;;4.26;100.00;98439.75;10483634;28;20524;-57
2021/11/12 15:40:21;;;;;;;456.08;32.88;;;;;;;4.12;100.00;98438.13;10481260;28;20040;-56
2021/11/12 15:45:26;;;;;;;91.43;31.13;;;;;;;3.95;100.00;98444.78;10480779;28;20411;-55
2021/11/12 15:50:37;;;;;;;139.15;32.38;;;;;;;3.75;100.00;98456.13;10481737;28;20045;-56
2021/11/12 15:55:55;;;;;;;340.75;32.38;;;;;;;3.47;100.00;98471.56;10486131;28;20424;-56
2021/11/12 16:06:43;;;;;;;657.20;44.08;;;;;;;3.10;100.00;98477.78;10477042;28;20063;-57
2021/11/12 16:12:04;;;;;;;670.20;43.05;;;;;;;3.07;100.00;98481.53;10480224;28;20051;-57
2021/11/12 16:28:02;;;;;;;554.72;47.67;;;;;;;2.80;100.00;98465.75;10476619;28;20065;-55
2021/11/12 16:33:07;;;;;;;485.10;40.10;;;;;;;2.81;100.00;98475.44;10474696;28;20509;-56
2021/11/12 16:38:15;;;;;;;934.45;45.33;;;;;;;2.66;100.00;98474.72;10478472;28;20412;-60
2021/11/12 16:43:29;;;;;;;848.00;44.00;;;;;;;2.59;100.00;98474.31;10450288;28;20052;-58
2021/11/12 16:48:41;;;;;;;983.03;46.45;;;;;;;2.50;100.00;98463.50;10447926;28;20048;-58
2021/11/12 16:59:15;;;;;;;817.75;43.22;;;;;;;2.52;100.00;98453.59;10416297;28;20055;-57
2021/11/12 17:09:53;;;;;;;208.85;41.72;;;;;;;2.57;100.00;98446.13;10419279;28;20436;-52
2021/11/12 17:15:19;;;;;;;403.73;38.47;;;;;;;2.63;100.00;98443.03;10427969;28;20047;-56
2021/11/12 17:47:12;;;;;;;315.95;34.03;;;;;;;2.67;100.00;98417.91;10453959;28;20497;-56
2021/11/12 17:52:44;;;;;;;391.23;30.25;;;;;;;2.67;100.00;98422.38;10439832;28;20128;-54
2021/11/12 18:03:15;;;;;;;339.25;28.02;;;;;;;2.66;100.00;98405.56;10457455;23;20041;-56
2021/11/12 18:08:57;;;;;;;203.18;28.73;;;;;;;2.68;100.00;98406.28;10477408;28;20598;-52
2021/11/12 18:14:32;;;;;;;130.32;26.98;;;;;;;2.68;100.00;98411.63;10472792;28;20048;-56
2021/11/12 21:47:50;;;;;;;55.33;29.30;;;;;;;1.70;100.00;98226.41;10438073;28;20124;-63
2021/11/12 21:52:55;;;;;;;55.97;29.15;;;;;;;1.74;100.00;98221.72;10432701;28;20060;-54
2021/11/12 21:57:58;;;;;;;51.33;28.15;;;;;;;1.77;100.00;98224.13;10431605;28;20416;-56
2021/11/12 22:03:01;;;;;;;43.75;26.25;;;;;;;1.80;100.00;98226.56;10433820;28;20416;-59
2021/11/12 22:08:07;;;;;;;40.83;24.95;;;;;;;1.84;100.00;98228.06;10438236;28;20049;-57
2021/11/12 22:13:10;;;;;;;42.75;26.10;;;;;;;1.91;100.00;98225.78;10438034;28;20041;-65
2021/11/12 22:18:15;;;;;;;39.65;22.80;;;;;;;1.92;100.00;98224.84;10424428;28;20044;-54
2021/11/12 22:23:21;;;;;;;34.10;20.92;;;;;;;2.09;100.00;98231.59;10440345;28;20094;-52
2021/11/12 22:28:24;;;;;;;31.55;20.25;;;;;;;2.17;100.00;98223.06;10433030;28;20111;-53
2021/11/12 22:33:28;;;;;;;28.38;19.58;;;;;;;2.22;100.00;98220.88;10420800;28;20073;-53
2021/11/12 22:38:33;;;;;;;27.83;18.17;;;;;;;2.29;100.00;98220.31;10437265;28;20561;-56
2021/11/12 22:43:36;;;;;;;28.95;19.10;;;;;;;2.37;100.00;98210.91;10432398;28;20056;-53
2021/11/12 22:48:40;;;;;;;27.50;17.88;;;;;;;2.39;100.00;98222.28;10440399;28;20067;-55
2021/11/12 22:53:44;;;;;;;29.58;19.05;;;;;;;2.38;100.00;98220.59;10423517;28;20047;-56
2021/11/12 22:58:48;;;;;;;30.30;19.50;;;;;;;2.36;100.00;98215.41;10432571;28;20057;-53
2021/11/12 23:03:51;;;;;;;28.58;18.83;;;;;;;2.38;100.00;98213.47;10421056;28;20417;-56
2021/11/12 23:08:55;;;;;;;30.48;18.52;;;;;;;2.38;100.00;98218.78;10429033;28;20051;-57
2021/11/12 23:13:59;;;;;;;28.80;18.50;;;;;;;2.39;100.00;98223.16;10399685;28;20053;-53
2021/11/12 23:19:02;;;;;;;24.73;17.33;;;;;;;2.39;100.00;98212.53;10438876;28;20041;-59
2021/11/12 23:24:06;;;;;;;26.40;17.77;;;;;;;2.43;100.00;98208.66;10440047;28;20064;-52
2021/11/12 23:29:10;;;;;;;29.77;17.88;;;;;;;2.41;100.00;98213.22;10441631;28;20049;-51
2021/11/12 23:34:13;;;;;;;28.08;18.50;;;;;;;2.44;100.00;98204.19;10439316;28;20052;-63
2021/11/12 23:39:18;;;;;;;29.42;18.23;;;;;;;2.43;100.00;98202.50;10439825;28;20053;-53
2021/11/12 23:44:21;;;;;;;30.15;18.38;;;;;;;2.45;100.00;98201.41;10420054;28;20402;-54
2021/11/12 23:49:25;;;;;;;29.13;19.10;;;;;;;2.45;100.00;98200.56;10441291;28;20409;-59
2021/11/12 23:54:29;;;;;;;30.55;19.00;;;;;;;2.44;100.00;98194.38;10436733;28;20037;-54
2021/11/12 23:59:32;;;;;;;29.90;18.98;;;;;;;2.42;100.00;98190.16;10440166;28;20036;-55
